• Join FlightAware (Why Join?)
  • Login
  • US Flag 
04:16AM EDT


 

Airport Tracker/Info


-or-


 

Live Flight TrackerFlight Track Log ✈ N662US ✈ 16-Jun-2013 ✈ RJAA / NRT - KSEA

Flight Track Log - Related Links

Times and Time Zones

All times are in EDT time to prevent confusion due to time zone crossing. See the N662US flight status page for this flight to view local times or setup timezone preferences in your user account.

Time Position Orientation Groundspeed Altitude Reporting Facility
EDT Latitude Longitude Course Direction KTS MPH feet Rate Location/Type
02:46AM 35.8020 140.3500 332° Northwest 182 209 1,700  Level FlightAware
02:47AM 35.8210 140.3350 327° Northwest 182 209 2,600 1,920 Climbing FlightAware
02:47AM 35.8430 140.3200 331° Northwest 182 209 3,500 1,380 Climbing FlightAware
02:47AM 35.8640 140.3040 328° Northwest 207 238 3,900 840 Climbing FlightAware
02:48AM 35.8770 140.2980 339° North 219 252 4,100 540 Climbing FlightAware
02:48AM 35.8960 140.3040 14° North 229 264 4,300 660 Climbing FlightAware
02:48AM 35.9020 140.3130 51° Northeast 229 264 4,500 1,620 Climbing FlightAware
02:49AM 35.9050 140.3740 87° East 293 337 5,600 2,220 Climbing FlightAware
02:49AM 35.8900 140.4100 117° Southeast 302 348 6,700 2,880 Climbing FlightAware
02:50AM 35.8710 140.4440 125° Southeast 306 352 7,900 3,000 Climbing FlightAware
02:50AM 35.8510 140.4790 125° Southeast 310 357 9,000 2,520 Climbing FlightAware
02:51AM 35.8300 140.5140 126° Southeast 316 364 10,000 1,920 Climbing FlightAware
02:51AM 35.7950 140.5750 125° Southeast 342 394 11,200 1,440 Climbing FlightAware
02:52AM 35.7610 140.6350 125° Southeast 375 432 11,900 1,380 Climbing FlightAware
02:53AM 35.7030 140.7340 126° Southeast 417 480 13,200 1,920 Climbing FlightAware
02:53AM 35.6530 140.8210 125° Southeast 431 496 14,800 1,500 Climbing FlightAware
02:54AM 35.5880 140.9330 125° Southeast 441 507 15,600 1,320 Climbing FlightAware
02:55AM 35.5430 141.0110 125° Southeast 450 518 17,000 1,980 Climbing FlightAware
02:56AM 35.4910 141.1090 123° Southeast 458 527 18,400 1,800 Climbing FlightAware
02:57AM 35.4380 141.2730 112° Southeast 471 542 20,400 1,620 Climbing FlightAware
02:58AM 35.3930 141.4230 110° East 482 555 22,000 1,500 Climbing FlightAware
02:58AM 35.3650 141.5200 109° East 493 567 22,800 1,260 Climbing FlightAware
02:59AM 35.3550 141.6500 95° East 506 582 23,800 1,200 Climbing FlightAware
03:00AM 35.3830 141.8100 78° East 519 597 25,000 1,260 Climbing FlightAware
03:01AM 35.4440 141.9350 59° Northeast 527 606 26,000 720 Climbing FlightAware
03:02AM 35.4810 142.0090 58° Northeast 529 609 26,100 1,140 Climbing FlightAware
03:02AM 35.5480 142.1380 57° Northeast 535 616 27,600 1,620 Climbing FlightAware
03:03AM 35.6010 142.2450 59° Northeast 538 619 28,300 1,320 Climbing FlightAware
03:04AM 35.6610 142.3660 59° Northeast 539 620 29,500 1,380 Climbing FlightAware
03:05AM 35.7260 142.4970 59° Northeast 538 619 30,500 900 Climbing FlightAware
03:06AM 35.8200 142.6920 59° Northeast 536 617 31,500 780 Climbing FlightAware
03:06AM 35.8730 142.8020 59° Northeast 537 618 32,000 240 Climbing FlightAware
03:07AM 35.9460 142.9530 59° Northeast 537 618 32,000  Level FlightAware
03:08AM 36.0020 143.0710 60° Northeast 530 610 32,000  Level FlightAware
03:09AM 36.0470 143.1640 59° Northeast 526 605 32,000  Level FlightAware
03:09AM 36.0990 143.2730 59° Northeast 524 603 32,000  Level FlightAware
03:10AM 36.1580 143.3980 60° Northeast 523 602 32,000  Level FlightAware
03:11AM 36.1990 143.4870 60° Northeast 523 602 32,000  Level FlightAware
03:12AM 36.2360 143.5660 60° Northeast 523 602 32,000  Level FlightAware
03:12AM 36.2860 143.6720 60° Northeast 523 602 32,000  Level FlightAware
03:14AM 36.3980 143.9030 59° Northeast 534 615 32,100  Climbing FlightAware
03:14AM 36.4360 143.9830 59° Northeast 534 615 32,100  Level FlightAware
03:15AM 36.4880 144.0910 59° Northeast 534 615 32,100  Level FlightAware
03:16AM 36.5270 144.1710 59° Northeast 534 615 32,100  Level FlightAware
03:16AM 36.5670 144.2540 59° Northeast 534 615 32,100  Level FlightAware
03:17AM 36.6190 144.3620 59° Northeast 534 615 32,100  Level FlightAware
03:18AM 36.6600 144.4470 59° Northeast 534 615 32,100  Level FlightAware
03:18AM 36.7120 144.5550 59° Northeast 534 615 32,100  Level FlightAware
03:19AM 36.7510 144.6360 59° Northeast 534 615 32,100  Level FlightAware
03:20AM 36.8010 144.7390 59° Northeast 534 615 32,100  Level FlightAware
03:21AM 36.8520 144.8450 59° Northeast 534 615 32,100  Level FlightAware
03:21AM 36.8920 144.9280 59° Northeast 534 615 32,100  Level FlightAware
03:22AM 36.9320 145.0110 59° Northeast 534 615 32,100  Level FlightAware
03:23AM 36.9840 145.1190 59° Northeast 534 615 32,100  Level FlightAware
05:06AM 42.6167 165.0000 82° East 564 649 34,000  Climbing Oakland Oceanic (ODAPS)
05:16AM 42.8167 167.1833 84° East 577 664 34,000  Level Oakland Oceanic (ODAPS)
05:31AM 43.0000 170.0000 79° East 587 676 35,000  Climbing Oakland Oceanic (ODAPS)
05:42AM 43.4167 173.1667 81° East 588 677 35,000  Level Oakland Oceanic (ODAPS)
06:09AM 43.9500 179.1667 85° East 600 690 35,000  Level Oakland Oceanic (ODAPS)
06:13AM 44.0000 -180.0000 79° East 569 655 35,000  Level Oakland Oceanic (ODAPS)
06:14AM 44.0333 -179.7833 79° East 569 655 35,000  Level Oakland Oceanic (ODAPS)
06:36AM 44.6000 -175.0667 82° East 549 632 35,000  Level Oakland Oceanic (ODAPS)
07:00AM 45.0000 -170.0000 70° East 537 618 35,000  Level Oakland Oceanic (ODAPS)
07:03AM 45.1500 -169.4167 71° East 535 616 35,000  Level Oakland Oceanic (ODAPS)
07:29AM 46.3333 -163.9167 75° East 529 609 35,000  Level Oakland Oceanic (ODAPS)
07:48AM 47.0000 -160.0000 78° East 521 600 36,000  Climbing Oakland Oceanic (ODAPS)
07:56AM 47.2333 -158.3500 79° East 518 596 36,000  Level Oakland Oceanic (ODAPS)
08:22AM 47.8167 -152.6833 83° East 524 603 36,000  Level Oakland Oceanic (ODAPS)
08:29AM 47.9161 -151.3440 84° East 524 603 36,000  Level FlightAware Transoceanic
08:30AM 47.9312 -151.1203 84° East 524 603 36,000  Level FlightAware Transoceanic
08:31AM 47.9458 -150.8965 85° East 524 603 36,000  Level FlightAware Transoceanic
08:32AM 47.9600 -150.6726 85° East 524 603 36,000  Level FlightAware Transoceanic
08:33AM 47.9738 -150.4485 85° East 524 603 36,000  Level FlightAware Transoceanic
08:34AM 47.9871 -150.2243 85° East 524 603 36,000  Level FlightAware Transoceanic
08:35AM 48.0000 -150.0000 86° East 524 603 36,000  Level FlightAware Transoceanic
08:35AM 48.0000 -150.0000 86° East 516 594 36,000  Level Oakland Oceanic (ODAPS)
08:36AM 48.0089 -149.7922 86° East 524 603 36,000  Level FlightAware Transoceanic
08:37AM 48.0173 -149.5844 87° East 524 603 36,000  Level FlightAware Transoceanic
08:38AM 48.0254 -149.3764 87° East 524 603 36,000  Level FlightAware Transoceanic
08:39AM 48.0331 -149.1685 87° East 524 603 36,000  Level FlightAware Transoceanic
08:40AM 48.0405 -148.9604 87° East 524 603 36,000  Level FlightAware Transoceanic
08:41AM 48.0475 -148.7523 87° East 524 603 36,000  Level FlightAware Transoceanic
08:42AM 48.0550 -148.5131 87° East 516 594 36,000  Level FlightAware Transoceanic
08:43AM 48.0613 -148.3005 88° East 516 594 36,000  Level FlightAware Transoceanic
08:44AM 48.0672 -148.0878 88° East 516 594 36,000  Level FlightAware Transoceanic
08:45AM 48.0727 -147.8750 88° East 516 594 36,000  Level FlightAware Transoceanic
08:46AM 48.0779 -147.6623 88° East 516 594 36,000  Level FlightAware Transoceanic
08:47AM 48.0826 -147.4494 88° East 516 594 36,000  Level FlightAware Transoceanic
08:48AM 48.0869 -147.2366 88° East 516 594 36,000  Level FlightAware Transoceanic
08:49AM 48.0908 -147.0237 88° East 516 594 36,000  Level FlightAware Transoceanic
08:49AM 48.0833 -146.9833 88° East 489 563 36,000  Level Oakland Oceanic (ODAPS)
08:50AM 48.0944 -146.8107 89° East 516 594 36,000  Level FlightAware Transoceanic
08:51AM 48.0975 -146.5978 89° East 516 594 36,000  Level FlightAware Transoceanic
08:52AM 48.1003 -146.3848 89° East 516 594 36,000  Level FlightAware Transoceanic
08:53AM 48.1026 -146.1718 89° East 516 594 36,000  Level FlightAware Transoceanic
08:54AM 48.1046 -145.9588 89° East 516 594 36,000  Level FlightAware Transoceanic
08:55AM 48.0991 -145.7855 89° East 489 563 36,000  Level FlightAware Transoceanic
08:56AM 48.1006 -145.5858 89° East 489 563 36,000  Level FlightAware Transoceanic
08:57AM 48.1016 -145.3861 90° East 489 563 36,000  Level FlightAware Transoceanic
08:58AM 48.1024 -145.1864 90° East 489 563 36,000  Level FlightAware Transoceanic
08:59AM 48.1027 -144.9866 90° East 489 563 36,000  Level FlightAware Transoceanic
09:00AM 48.1028 -144.7869 90° East 489 563 36,000  Level FlightAware Transoceanic
09:01AM 48.1025 -144.5872 90° East 489 563 36,000  Level FlightAware Transoceanic
09:02AM 48.1018 -144.3875 90° East 489 563 36,000  Level FlightAware Transoceanic
09:03AM 48.1008 -144.1877 91° East 489 563 36,000  Level FlightAware Transoceanic
09:04AM 48.0995 -143.9880 91° East 489 563 36,000  Level FlightAware Transoceanic
09:05AM 48.0978 -143.7883 91° East 489 563 36,000  Level FlightAware Transoceanic
09:06AM 48.0957 -143.5887 91° East 489 563 36,000  Level FlightAware Transoceanic
09:07AM 48.0934 -143.3890 91° East 489 563 36,000  Level FlightAware Transoceanic
09:08AM 48.0906 -143.1894 91° East 489 563 36,000  Level FlightAware Transoceanic
09:09AM 48.0876 -142.9897 91° East 489 563 36,000  Level FlightAware Transoceanic
09:10AM 48.0841 -142.7902 92° East 489 563 36,000  Level FlightAware Transoceanic
09:11AM 48.0804 -142.5906 92° East 489 563 36,000  Level FlightAware Transoceanic
09:12AM 48.0762 -142.3911 92° East 489 563 36,000  Level FlightAware Transoceanic
09:13AM 48.0718 -142.1916 92° East 489 563 36,000  Level FlightAware Transoceanic
09:14AM 48.0670 -141.9921 92° East 489 563 36,000  Level FlightAware Transoceanic
09:15AM 48.0618 -141.7927 92° East 489 563 36,000  Level FlightAware Transoceanic
09:16AM 48.0564 -141.5933 92° East 489 563 36,000 780 Level FlightAware Transoceanic
09:16AM 48.0667 -141.6000 93° East 486 559 37,000  Climbing Oakland Oceanic (ODAPS)
09:17AM 48.0505 -141.3939 93° East 489 563 36,000 -600 Descending FlightAware Transoceanic
09:18AM 48.0443 -141.1947 93° East 489 563 36,000  Level FlightAware Transoceanic
09:19AM 48.0378 -140.9954 93° East 489 563 36,000  Level FlightAware Transoceanic
09:20AM 48.0309 -140.7962 93° East 489 563 36,000  Level FlightAware Transoceanic
09:21AM 48.0237 -140.5971 93° East 489 563 36,000 480 Level FlightAware Transoceanic
09:22AM 48.0187 -140.3996 94° East 486 559 37,000 480 Climbing FlightAware Transoceanic
09:23AM 48.0095 -140.1998 94° East 486 559 37,000  Level FlightAware Transoceanic
09:24AM 48.0000 -140.0000 87° East 486 559 37,000  Level FlightAware Transoceanic
09:24AM 48.0000 -140.0000 87° East 488 562 37,000  Level Oakland Oceanic (ODAPS)
09:25AM 48.0072 -139.7988 87° East 486 559 37,000  Level FlightAware Transoceanic
09:26AM 48.0141 -139.5975 87° East 486 559 37,000  Level FlightAware Transoceanic
09:27AM 48.0206 -139.3962 87° East 486 559 37,000  Level FlightAware Transoceanic
09:28AM 48.0268 -139.1948 87° East 486 559 37,000  Level FlightAware Transoceanic
09:29AM 48.0326 -138.9934 88° East 486 559 37,000  Level FlightAware Transoceanic
09:30AM 48.0381 -138.7920 88° East 486 559 37,000  Level FlightAware Transoceanic
09:31AM 48.0432 -138.5905 88° East 488 562 37,000  Level FlightAware Transoceanic
09:32AM 48.0480 -138.3889 88° East 488 562 37,000  Level FlightAware Transoceanic
09:33AM 48.0524 -138.1874 88° East 488 562 37,000  Level FlightAware Transoceanic
09:34AM 48.0565 -137.9857 88° East 488 562 37,000  Level FlightAware Transoceanic
09:35AM 48.0602 -137.7841 88° East 488 562 37,000  Level FlightAware Transoceanic
09:36AM 48.0635 -137.5824 89° East 488 562 37,000  Level FlightAware Transoceanic
09:37AM 48.0665 -137.3808 89° East 488 562 37,000  Level FlightAware Transoceanic
09:38AM 48.0692 -137.1790 89° East 488 562 37,000  Level FlightAware Transoceanic
09:39AM 48.0715 -136.9773 89° East 488 562 37,000  Level FlightAware Transoceanic
09:40AM 48.0734 -136.7756 89° East 488 562 37,000  Level FlightAware Transoceanic
09:41AM 48.0750 -136.5738 89° East 488 562 37,000  Level FlightAware Transoceanic
09:42AM 48.0762 -136.3720 90° East 488 562 37,000  Level FlightAware Transoceanic
09:42AM 48.0833 -136.2333 90° East 488 562 37,000  Level Oakland Oceanic (ODAPS)
09:43AM 48.0771 -136.1702 90° East 488 562 37,000  Level FlightAware Transoceanic
09:44AM 48.0776 -135.9685 90° East 488 562 37,000  Level FlightAware Transoceanic
09:45AM 48.0778 -135.7667 90° East 488 562 37,000  Level FlightAware Transoceanic
09:46AM 48.0776 -135.5649 90° East 488 562 37,000  Level FlightAware Transoceanic
09:47AM 48.0771 -135.3631 90° East 488 562 37,000  Level FlightAware Transoceanic
09:48AM 48.0762 -135.1613 90° East 488 562 37,000  Level FlightAware Transoceanic
09:49AM 48.0801 -135.0060 91° East 488 562 37,000  Level FlightAware Transoceanic
09:50AM 48.0783 -134.8015 91° East 488 562 37,000  Level FlightAware Transoceanic
09:51AM 48.0761 -134.5970 91° East 488 562 37,000  Level FlightAware Transoceanic
09:52AM 48.0736 -134.3925 91° East 488 562 37,000  Level FlightAware Transoceanic
09:53AM 48.0707 -134.1881 91° East 488 562 37,000  Level FlightAware Transoceanic
09:54AM 48.0674 -133.9836 91° East 488 562 37,000  Level FlightAware Transoceanic
09:55AM 48.0638 -133.7792 92° East 488 562 37,000  Level FlightAware Transoceanic
09:56AM 48.0598 -133.5748 92° East 488 562 37,000  Level FlightAware Transoceanic
09:57AM 48.0554 -133.3705 92° East 488 562 37,000  Level FlightAware Transoceanic
09:58AM 48.0507 -133.1662 92° East 488 562 37,000  Level FlightAware Transoceanic
09:59AM 48.0457 -132.9619 92° East 488 562 37,000  Level FlightAware Transoceanic
10:00AM 48.0402 -132.7577 92° East 488 562 37,000  Level FlightAware Transoceanic
10:01AM 48.0344 -132.5535 93° East 488 562 37,000  Level FlightAware Transoceanic
10:02AM 48.0283 -132.3494 93° East 488 562 37,000  Level FlightAware Transoceanic
10:03AM 48.0217 -132.1453 93° East 488 562 37,000  Level FlightAware Transoceanic
10:04AM 48.0149 -131.9412 93° East 488 562 37,000  Level FlightAware Transoceanic
10:05AM 48.0076 -131.7372 93° East 488 562 37,000  Level FlightAware Transoceanic
10:05AM 48.0000 -131.7167 75° East 470 541 37,000  Level Vancouver Center
10:06AM 48.0000 -131.5333 75° East 488 562 37,000  Level FlightAware Transoceanic
10:06AM 47.9667 -131.5167 104° East 490 564 37,000  Level Vancouver Center
10:07AM 48.0343 -131.3436 75° East 488 562 37,000  Level FlightAware Transoceanic
10:08AM 48.0682 -131.1536 75° East 488 562 37,000  Level FlightAware Transoceanic
10:08AM 48.0667 -131.1000 70° East 460 529 37,000  Level Vancouver Center
10:09AM 48.1019 -130.9634 75° East 488 562 37,000  Level FlightAware Transoceanic
10:09AM 48.1000 -130.8833 77° East 500 575 37,000  Level Vancouver Center
10:10AM 48.1352 -130.7729 75° East 488 562 37,000  Level FlightAware Transoceanic
10:10AM 48.1333 -130.6833 76° East 500 575 37,000  Level Vancouver Center
10:11AM 48.1833 -130.4667 71° East 500 575 37,000  Level Vancouver Center
10:12AM 48.2000 -130.2833 82° East 500 575 37,000  Level Vancouver Center
10:13AM 48.2167 -130.0833 83° East 500 575 37,000  Level Vancouver Center
10:14AM 48.2333 -129.8667 83° East 500 575 37,000  Level Vancouver Center
10:15AM 48.2333 -129.6667 90° East 490 564 37,000  Level Vancouver Center
10:16AM 48.2500 -129.4667 83° East 490 564 37,000  Level Vancouver Center
10:22AM 48.3290 -128.1260 83° East 496 571 37,000  Level FlightAware
10:23AM 48.3330 -128.0020 87° East 496 571 37,000  Level FlightAware
10:23AM 48.3380 -127.9020 86° East 496 571 37,000  Level FlightAware
10:24AM 48.3350 -127.7020 91° East 493 567 37,000  Level FlightAware
10:25AM 48.3340 -127.5230 90° East 495 570 37,000  Level FlightAware
10:26AM 48.3340 -127.3820 90° East 496 571 37,000  Level FlightAware
10:27AM 48.3340 -127.1690 90° East 497 572 37,000  Level FlightAware
10:28AM 48.3340 -127.0280 90° East 498 573 37,000  Level FlightAware
10:28AM 48.3330 -126.9030 91° East 499 574 37,000  Level FlightAware
10:29AM 48.3330 -126.8070 90° East 499 574 37,000  Level FlightAware
10:30AM 48.3320 -126.5960 90° East 499 574 37,000  Level FlightAware
10:30AM 48.3300 -126.4310 91° East 497 572 37,000  Level FlightAware
10:31AM 48.3290 -126.2830 91° East 494 568 37,000  Level FlightAware
10:32AM 48.3270 -126.1430 91° East 492 566 37,000  Level FlightAware
10:32AM 48.3260 -126.0070 91° East 489 563 37,000  Level FlightAware
10:33AM 48.3240 -125.8680 91° East 487 560 37,000  Level FlightAware
10:34AM 48.3220 -125.7170 91° East 485 558 37,000  Level FlightAware
10:34AM 48.3200 -125.5960 91° East 484 557 37,000  Level FlightAware
10:35AM 48.3170 -125.4080 91° East 485 558 37,000  Level FlightAware
10:36AM 48.3130 -125.2390 92° East 487 560 37,000  Level FlightAware
10:37AM 48.3110 -125.1140 91° East 488 562 37,000  Level FlightAware
10:38AM 48.3080 -124.9830 92° East 489 563 37,000  Level FlightAware
10:38AM 48.3050 -124.8500 92° East 491 565 37,000  Level FlightAware
10:39AM 48.3030 -124.7310 91° East 493 567 37,000 -300 Level FlightAware
10:39AM 48.2930 -124.5920 96° East 493 567 36,700 -1,800 Descending FlightAware
10:40AM 48.2690 -124.4050 101° East 488 562 34,100 -2,640 Descending FlightAware
10:41AM 48.2550 -124.2970 101° East 476 548 32,800 -2,340 Descending FlightAware
10:41AM 48.2390 -124.1890 103° East 466 536 31,500 -2,400 Descending FlightAware
10:42AM 48.2250 -124.0950 103° East 458 527 30,300 -2,400 Descending FlightAware
10:42AM 48.2120 -124.0030 102° East 451 519 29,100 -2,520 Descending FlightAware
10:43AM 48.1930 -123.8730 102° East 442 509 27,300 -2,640 Descending FlightAware
10:44AM 48.1790 -123.7780 102° East 434 499 25,900 -2,640 Descending FlightAware
10:44AM 48.1620 -123.6630 102° East 422 486 24,200 -2,220 Descending FlightAware
10:45AM 48.1500 -123.5840 103° East 416 479 23,000 -1,980 Descending FlightAware
10:46AM 48.1380 -123.5000 102° East 410 472 21,700 -2,160 Descending FlightAware
10:46AM 48.1290 -123.4420 103° East 406 467 20,800 -3,060 Descending FlightAware
10:47AM 48.0980 -123.2350 103° East 393 452 17,600 -3,180 Descending FlightAware
10:48AM 48.0840 -123.1420 103° East 391 450 16,000 -2,520 Descending FlightAware
10:48AM 48.0660 -123.0270 103° East 377 434 14,300 -2,220 Descending FlightAware
10:49AM 48.0510 -122.9290 103° East 367 422 12,900 -1,680 Descending FlightAware
10:50AM 48.0380 -122.8570 105° East 339 390 12,400 -600 Descending FlightAware
10:50AM 48.0100 -122.7880 121° Southeast 298 343 12,200 -480 Descending FlightAware
10:51AM 47.9870 -122.7400 126° Southeast 276 318 11,900 -1,320 Descending FlightAware
10:51AM 47.9590 -122.6880 129° Southeast 280 322 10,800 -1,620 Descending FlightAware
10:52AM 47.9250 -122.6270 130° Southeast 276 318 9,900 -1,320 Descending FlightAware
10:52AM 47.9050 -122.5890 128° Southeast 268 308 9,400 -1,080 Descending FlightAware
10:53AM 47.8870 -122.5580 131° Southeast 265 305 9,000 -1,200 Descending FlightAware
10:53AM 47.8780 -122.5400 127° Southeast 263 303 8,700 -780 Descending FlightAware
10:53AM 47.8560 -122.5030 132° Southeast 245 282 8,500 -900 Descending FlightAware
10:54AM 47.8370 -122.4720 132° Southeast 243 280 7,900 -1,320 Descending FlightAware
10:55AM 47.7720 -122.4030 144° Southeast 232 267 6,400 -1,020 Descending FlightAware
10:56AM 47.7210 -122.3640 153° Southeast 238 274 5,500 -1,200 Descending FlightAware
10:57AM 47.6800 -122.3340 154° Southeast 240 276 4,500 -1,620 Descending FlightAware
10:57AM 47.6480 -122.3120 155° Southeast 219 252 4,100 -840 Descending FlightAware
10:57AM 47.6390 -122.3100 171° South 217 250 3,900 -1,020 Descending FlightAware
10:58AM 47.6260 -122.3100 180° South 211 243 3,700 -1,200 Descending FlightAware
10:58AM 47.5930 -122.3100 180° South 203 234 3,000 -720 Descending FlightAware
10:59AM 47.5720 -122.3100 180° South 203 234 3,000 -1,020 Level FlightAware
11:00AM 47.4920 -122.3110 180° South 900 -1,200 Descending FlightAware
11:01AM 47.4720 -122.3110 180° South 150 173 500 -840 Descending FlightAware